sensor_id;sensor_type;location;lat;lon;timestamp;temperature;humidity
42147;DHT22;27815;43.410;11.852;2023-04-09T03:56:57;7.20;60.60
42147;DHT22;27815;43.410;11.852;2023-04-09T04:06:39;7.10;60.90
42147;DHT22;27815;43.410;11.852;2023-04-09T04:11:49;6.90;61.20
42147;DHT22;27815;43.410;11.852;2023-04-09T04:16:32;6.70;61.60
42147;DHT22;27815;43.410;11.852;2023-04-09T04:26:18;7.00;61.40
42147;DHT22;27815;43.410;11.852;2023-04-09T04:40:02;6.70;62.10
42147;DHT22;27815;43.410;11.852;2023-04-09T04:44:40;6.50;62.40
42147;DHT22;27815;43.410;11.852;2023-04-09T04:49:16;6.40;63.10
42147;DHT22;27815;43.410;11.852;2023-04-09T04:53:36;6.40;63.50
42147;DHT22;27815;43.410;11.852;2023-04-09T04:58:17;6.30;63.70
42147;DHT22;27815;43.410;11.852;2023-04-09T05:02:44;6.50;63.60
42147;DHT22;27815;43.410;11.852;2023-04-09T05:07:32;6.70;63.40
42147;DHT22;27815;43.410;11.852;2023-04-09T05:36:23;7.70;62.40
42147;DHT22;27815;43.410;11.852;2023-04-09T05:41:06;8.00;62.10
42147;DHT22;27815;43.410;11.852;2023-04-09T05:46:07;8.20;61.90
42147;DHT22;27815;43.410;11.852;2023-04-09T05:50:50;8.30;61.70
42147;DHT22;27815;43.410;11.852;2023-04-09T05:55:51;8.40;61.70
42147;DHT22;27815;43.410;11.852;2023-04-09T06:00:54;8.40;61.60
42147;DHT22;27815;43.410;11.852;2023-04-09T06:05:51;8.40;61.50
42147;DHT22;27815;43.410;11.852;2023-04-09T06:10:12;8.40;61.50
42147;DHT22;27815;43.410;11.852;2023-04-09T06:29:39;9.20;60.90
42147;DHT22;27815;43.410;11.852;2023-04-09T06:34:25;9.50;60.70
42147;DHT22;27815;43.410;11.852;2023-04-09T07:07:43;10.30;60.00
42147;DHT22;27815;43.410;11.852;2023-04-09T07:17:25;10.50;59.60
42147;DHT22;27815;43.410;11.852;2023-04-09T07:22:02;10.70;59.50
42147;DHT22;27815;43.410;11.852;2023-04-09T07:27:05;10.80;59.50
42147;DHT22;27815;43.410;11.852;2023-04-09T07:51:10;12.70;57.90
42147;DHT22;27815;43.410;11.852;2023-04-09T07:56:39;13.00;57.60
42147;DHT22;27815;43.410;11.852;2023-04-09T08:07:46;13.50;56.90
42147;DHT22;27815;43.410;11.852;2023-04-09T08:13:52;13.50;55.80
42147;DHT22;27815;43.410;11.852;2023-04-09T08:48:14;14.90;54.00
42147;DHT22;27815;43.410;11.852;2023-04-09T08:52:18;14.80;53.00
42147;DHT22;27815;43.410;11.852;2023-04-09T08:56:31;14.90;52.20
42147;DHT22;27815;43.410;11.852;2023-04-09T09:00:33;15.10;49.90
42147;DHT22;27815;43.410;11.852;2023-04-09T09:04:45;15.30;49.40
42147;DHT22;27815;43.410;11.852;2023-04-09T09:17:17;15.40;48.50
42147;DHT22;27815;43.410;11.852;2023-04-09T09:21:20;15.20;48.50
42147;DHT22;27815;43.410;11.852;2023-04-09T09:25:23;15.40;48.80
42147;DHT22;27815;43.410;11.852;2023-04-09T09:29:28;15.50;48.20
42147;DHT22;27815;43.410;11.852;2023-04-09T09:33:32;15.30;47.80
42147;DHT22;27815;43.410;11.852;2023-04-09T09:37:35;15.30;47.70
42147;DHT22;27815;43.410;11.852;2023-04-09T09:41:38;15.20;48.30
42147;DHT22;27815;43.410;11.852;2023-04-09T09:45:41;15.00;47.70
42147;DHT22;27815;43.410;11.852;2023-04-09T09:49:46;14.90;47.40
42147;DHT22;27815;43.410;11.852;2023-04-09T09:53:49;14.80;47.70
42147;DHT22;27815;43.410;11.852;2023-04-09T09:57:53;14.80;48.10
42147;DHT22;27815;43.410;11.852;2023-04-09T10:01:58;15.00;48.30
42147;DHT22;27815;43.410;11.852;2023-04-09T10:06:01;15.40;48.20
42147;DHT22;27815;43.410;11.852;2023-04-09T10:10:04;15.60;46.90
42147;DHT22;27815;43.410;11.852;2023-04-09T10:14:08;15.90;46.90
42147;DHT22;27815;43.410;11.852;2023-04-09T10:18:11;16.00;45.80
42147;DHT22;27815;43.410;11.852;2023-04-09T10:22:15;16.10;45.90
42147;DHT22;27815;43.410;11.852;2023-04-09T10:26:19;16.40;45.90
42147;DHT22;27815;43.410;11.852;2023-04-09T10:30:34;16.50;45.10
42147;DHT22;27815;43.410;11.852;2023-04-09T10:34:40;16.40;45.40
42147;DHT22;27815;43.410;11.852;2023-04-09T10:38:46;16.70;45.30
42147;DHT22;27815;43.410;11.852;2023-04-09T10:42:50;16.50;44.80
42147;DHT22;27815;43.410;11.852;2023-04-09T10:46:53;16.50;45.10
42147;DHT22;27815;43.410;11.852;2023-04-09T10:50:56;16.80;44.50
42147;DHT22;27815;43.410;11.852;2023-04-09T10:54:58;16.90;43.70
42147;DHT22;27815;43.410;11.852;2023-04-09T10:59:01;16.90;42.70
42147;DHT22;27815;43.410;11.852;2023-04-09T11:07:10;16.50;42.40
42147;DHT22;27815;43.410;11.852;2023-04-09T11:11:12;16.40;42.40
42147;DHT22;27815;43.410;11.852;2023-04-09T11:15:15;16.40;43.10
42147;DHT22;27815;43.410;11.852;2023-04-09T11:19:19;16.40;43.10
42147;DHT22;27815;43.410;11.852;2023-04-09T11:23:22;16.50;43.10
42147;DHT22;27815;43.410;11.852;2023-04-09T11:27:25;16.60;43.10
42147;DHT22;27815;43.410;11.852;2023-04-09T11:31:28;17.00;43.20
42147;DHT22;27815;43.410;11.852;2023-04-09T11:35:32;17.10;42.30
42147;DHT22;27815;43.410;11.852;2023-04-09T11:39:35;16.90;42.40
42147;DHT22;27815;43.410;11.852;2023-04-09T11:43:38;16.60;42.70
42147;DHT22;27815;43.410;11.852;2023-04-09T11:47:41;16.80;42.70
42147;DHT22;27815;43.410;11.852;2023-04-09T11:51:44;17.00;42.10
42147;DHT22;27815;43.410;11.852;2023-04-09T11:55:50;17.10;42.10
42147;DHT22;27815;43.410;11.852;2023-04-09T11:59:53;17.40;41.80
42147;DHT22;27815;43.410;11.852;2023-04-09T12:03:56;17.50;40.80
42147;DHT22;27815;43.410;11.852;2023-04-09T12:08:03;17.30;40.90
42147;DHT22;27815;43.410;11.852;2023-04-09T12:12:08;17.30;41.50
42147;DHT22;27815;43.410;11.852;2023-04-09T12:16:12;17.40;41.40
42147;DHT22;27815;43.410;11.852;2023-04-09T12:20:28;17.10;40.00
42147;DHT22;27815;43.410;11.852;2023-04-09T12:24:31;16.80;40.50
42147;DHT22;27815;43.410;11.852;2023-04-09T12:28:34;16.80;41.00
42147;DHT22;27815;43.410;11.852;2023-04-09T12:32:36;17.10;41.20
42147;DHT22;27815;43.410;11.852;2023-04-09T12:36:40;17.40;40.80
42147;DHT22;27815;43.410;11.852;2023-04-09T12:40:43;17.10;40.30
42147;DHT22;27815;43.410;11.852;2023-04-09T12:44:46;16.80;40.70
42147;DHT22;27815;43.410;11.852;2023-04-09T12:48:48;16.50;41.10
42147;DHT22;27815;43.410;11.852;2023-04-09T12:52:51;16.30;41.90
42147;DHT22;27815;43.410;11.852;2023-04-09T12:56:57;16.00;42.50
42147;DHT22;27815;43.410;11.852;2023-04-09T13:00:59;15.70;42.90
42147;DHT22;27815;43.410;11.852;2023-04-09T13:05:04;15.50;43.30
42147;DHT22;27815;43.410;11.852;2023-04-09T13:09:06;15.50;43.60
42147;DHT22;27815;43.410;11.852;2023-04-09T13:13:09;15.30;44.00
42147;DHT22;27815;43.410;11.852;2023-04-09T13:17:15;15.20;44.50
42147;DHT22;27815;43.410;11.852;2023-04-09T13:21:17;15.00;45.00
42147;DHT22;27815;43.410;11.852;2023-04-09T13:25:20;14.80;45.40
42147;DHT22;27815;43.410;11.852;2023-04-09T13:29:23;14.80;45.60
42147;DHT22;27815;43.410;11.852;2023-04-09T13:33:27;14.60;46.30
42147;DHT22;27815;43.410;11.852;2023-04-09T13:37:30;14.60;46.70
42147;DHT22;27815;43.410;11.852;2023-04-09T13:41:33;14.70;46.60
42147;DHT22;27815;43.410;11.852;2023-04-09T13:45:35;14.80;47.00
42147;DHT22;27815;43.410;11.852;2023-04-09T13:49:38;14.90;46.70
42147;DHT22;27815;43.410;11.852;2023-04-09T13:53:41;15.00;46.40
42147;DHT22;27815;43.410;11.852;2023-04-09T13:57:44;15.20;46.30
42147;DHT22;27815;43.410;11.852;2023-04-09T14:01:47;15.20;46.10
42147;DHT22;27815;43.410;11.852;2023-04-09T14:05:50;15.10;46.20
42147;DHT22;27815;43.410;11.852;2023-04-09T14:09:52;15.20;46.00
42147;DHT22;27815;43.410;11.852;2023-04-09T14:13:55;15.20;45.80
42147;DHT22;27815;43.410;11.852;2023-04-09T14:17:58;15.10;45.80
42147;DHT22;27815;43.410;11.852;2023-04-09T14:22:00;15.20;45.80
42147;DHT22;27815;43.410;11.852;2023-04-09T14:26:04;15.30;45.80
42147;DHT22;27815;43.410;11.852;2023-04-09T14:30:10;15.40;45.80
42147;DHT22;27815;43.410;11.852;2023-04-09T14:34:14;15.40;45.50
42147;DHT22;27815;43.410;11.852;2023-04-09T14:38:17;15.40;45.60
42147;DHT22;27815;43.410;11.852;2023-04-09T14:42:20;15.40;45.50
42147;DHT22;27815;43.410;11.852;2023-04-09T14:46:23;15.30;45.60
42147;DHT22;27815;43.410;11.852;2023-04-09T14:50:25;15.30;45.50
42147;DHT22;27815;43.410;11.852;2023-04-09T14:54:28;15.30;45.40
42147;DHT22;27815;43.410;11.852;2023-04-09T14:58:32;15.20;45.40
42147;DHT22;27815;43.410;11.852;2023-04-09T15:02:35;15.40;45.40
42147;DHT22;27815;43.410;11.852;2023-04-09T15:06:38;15.40;45.50
42147;DHT22;27815;43.410;11.852;2023-04-09T15:10:40;15.40;45.20
42147;DHT22;27815;43.410;11.852;2023-04-09T15:14:43;15.20;44.90
42147;DHT22;27815;43.410;11.852;2023-04-09T15:18:46;15.20;44.70
42147;DHT22;27815;43.410;11.852;2023-04-09T15:22:50;15.40;44.60
42147;DHT22;27815;43.410;11.852;2023-04-09T15:26:53;15.60;43.90
42147;DHT22;27815;43.410;11.852;2023-04-09T15:30:55;15.80;43.90
42147;DHT22;27815;43.410;11.852;2023-04-09T15:34:58;16.00;43.10
42147;DHT22;27815;43.410;11.852;2023-04-09T15:39:02;16.10;42.70
42147;DHT22;27815;43.410;11.852;2023-04-09T15:43:08;16.20;42.60
42147;DHT22;27815;43.410;11.852;2023-04-09T15:47:10;16.40;42.60
42147;DHT22;27815;43.410;11.852;2023-04-09T15:51:13;16.50;42.30
42147;DHT22;27815;43.410;11.852;2023-04-09T15:55:15;16.80;41.20
42147;DHT22;27815;43.410;11.852;2023-04-09T15:59:18;16.60;40.60
42147;DHT22;27815;43.410;11.852;2023-04-09T16:03:21;16.50;40.70
42147;DHT22;27815;43.410;11.852;2023-04-09T16:07:24;16.50;41.00
42147;DHT22;27815;43.410;11.852;2023-04-09T16:11:28;16.50;41.10
42147;DHT22;27815;43.410;11.852;2023-04-09T16:15:33;16.80;41.40
42147;DHT22;27815;43.410;11.852;2023-04-09T16:19:36;17.20;40.80
42147;DHT22;27815;43.410;11.852;2023-04-09T16:23:39;17.30;40.80
42147;DHT22;27815;43.410;11.852;2023-04-09T16:27:42;17.40;40.70
42147;DHT22;27815;43.410;11.852;2023-04-09T16:31:44;17.50;40.40
42147;DHT22;27815;43.410;11.852;2023-04-09T16:35:47;17.70;39.80
42147;DHT22;27815;43.410;11.852;2023-04-09T16:39:50;17.70;39.90
42147;DHT22;27815;43.410;11.852;2023-04-09T16:43:53;17.60;39.40
42147;DHT22;27815;43.410;11.852;2023-04-09T16:47:55;17.20;39.80
42147;DHT22;27815;43.410;11.852;2023-04-09T16:51:58;17.00;39.70
42147;DHT22;27815;43.410;11.852;2023-04-09T16:56:01;16.80;39.40
42147;DHT22;27815;43.410;11.852;2023-04-09T17:00:04;17.20;39.70
42147;DHT22;27815;43.410;11.852;2023-04-09T17:04:07;18.10;38.80
42147;DHT22;27815;43.410;11.852;2023-04-09T17:08:10;18.80;38.40
42147;DHT22;27815;43.410;11.852;2023-04-09T17:12:13;18.50;38.10
42147;DHT22;27815;43.410;11.852;2023-04-09T17:16:16;17.70;38.80
42147;DHT22;27815;43.410;11.852;2023-04-09T17:20:20;17.10;39.50
42147;DHT22;27815;43.410;11.852;2023-04-09T17:24:26;16.60;39.60
42147;DHT22;27815;43.410;11.852;2023-04-09T17:28:29;16.20;40.10
42147;DHT22;27815;43.410;11.852;2023-04-09T17:32:32;15.90;40.20
42147;DHT22;27815;43.410;11.852;2023-04-09T17:36:34;15.50;40.30
42147;DHT22;27815;43.410;11.852;2023-04-09T17:40:37;15.00;40.70
42147;DHT22;27815;43.410;11.852;2023-04-09T17:44:40;14.70;41.20
42147;DHT22;27815;43.410;11.852;2023-04-09T17:48:45;14.40;41.20
42147;DHT22;27815;43.410;11.852;2023-04-09T17:52:48;14.10;41.50
42147;DHT22;27815;43.410;11.852;2023-04-09T17:56:51;13.80;41.70
42147;DHT22;27815;43.410;11.852;2023-04-09T18:00:54;13.60;41.90
42147;DHT22;27815;43.410;11.852;2023-04-09T18:05:00;13.40;42.10
42147;DHT22;27815;43.410;11.852;2023-04-09T18:09:04;13.20;42.30
42147;DHT22;27815;43.410;11.852;2023-04-09T18:13:06;13.10;42.40
42147;DHT22;27815;43.410;11.852;2023-04-09T18:17:09;12.90;42.60
42147;DHT22;27815;43.410;11.852;2023-04-09T18:21:12;12.90;42.80
42147;DHT22;27815;43.410;11.852;2023-04-09T18:25:16;12.80;42.90
42147;DHT22;27815;43.410;11.852;2023-04-09T18:29:20;12.70;43.10
42147;DHT22;27815;43.410;11.852;2023-04-09T18:33:23;12.60;43.20
42147;DHT22;27815;43.410;11.852;2023-04-09T18:37:26;12.50;43.30
42147;DHT22;27815;43.410;11.852;2023-04-09T18:41:30;12.50;43.40
42147;DHT22;27815;43.410;11.852;2023-04-09T18:45:33;12.40;43.50
42147;DHT22;27815;43.410;11.852;2023-04-09T18:49:35;12.30;43.60
42147;DHT22;27815;43.410;11.852;2023-04-09T18:53:38;12.20;43.70
42147;DHT22;27815;43.410;11.852;2023-04-09T18:57:45;12.20;43.70
42147;DHT22;27815;43.410;11.852;2023-04-09T19:01:48;12.10;43.70
42147;DHT22;27815;43.410;11.852;2023-04-09T19:05:52;12.10;43.80
42147;DHT22;27815;43.410;11.852;2023-04-09T19:09:54;12.00;44.00
42147;DHT22;27815;43.410;11.852;2023-04-09T19:13:57;12.00;44.00
42147;DHT22;27815;43.410;11.852;2023-04-09T19:18:03;11.90;44.10
42147;DHT22;27815;43.410;11.852;2023-04-09T19:22:06;11.90;44.20
42147;DHT22;27815;43.410;11.852;2023-04-09T19:26:08;11.80;44.30
42147;DHT22;27815;43.410;11.852;2023-04-09T19:30:11;11.80;44.40
42147;DHT22;27815;43.410;11.852;2023-04-09T19:34:14;11.70;44.50
42147;DHT22;27815;43.410;11.852;2023-04-09T19:38:19;11.60;44.60
42147;DHT22;27815;43.410;11.852;2023-04-09T19:42:22;11.60;44.60
42147;DHT22;27815;43.410;11.852;2023-04-09T19:46:24;11.50;44.70
42147;DHT22;27815;43.410;11.852;2023-04-09T19:50:29;11.50;44.80
42147;DHT22;27815;43.410;11.852;2023-04-09T19:54:35;11.50;44.80
42147;DHT22;27815;43.410;11.852;2023-04-09T19:58:39;11.40;44.90
42147;DHT22;27815;43.410;11.852;2023-04-09T20:02:50;11.30;45.00
42147;DHT22;27815;43.410;11.852;2023-04-09T20:06:53;11.20;45.10
42147;DHT22;27815;43.410;11.852;2023-04-09T20:11:05;11.10;45.20
42147;DHT22;27815;43.410;11.852;2023-04-09T20:15:41;11.10;45.30
42147;DHT22;27815;43.410;11.852;2023-04-09T20:20:11;11.00;45.50
42147;DHT22;27815;43.410;11.852;2023-04-09T20:24:15;10.90;45.60
42147;DHT22;27815;43.410;11.852;2023-04-09T20:28:27;10.90;45.70
42147;DHT22;27815;43.410;11.852;2023-04-09T20:33:25;10.80;45.80
42147;DHT22;27815;43.410;11.852;2023-04-09T20:37:39;10.80;45.80
42147;DHT22;27815;43.410;11.852;2023-04-09T20:41:47;10.90;45.80
42147;DHT22;27815;43.410;11.852;2023-04-09T20:45:52;10.90;45.70
42147;DHT22;27815;43.410;11.852;2023-04-09T20:49:57;10.90;45.60
42147;DHT22;27815;43.410;11.852;2023-04-09T20:54:03;10.90;45.50
42147;DHT22;27815;43.410;11.852;2023-04-09T20:58:06;11.00;45.40
42147;DHT22;27815;43.410;11.852;2023-04-09T21:02:12;11.00;45.20
42147;DHT22;27815;43.410;11.852;2023-04-09T21:06:15;11.00;45.00
42147;DHT22;27815;43.410;11.852;2023-04-09T21:10:20;11.00;44.80
42147;DHT22;27815;43.410;11.852;2023-04-09T21:14:23;11.00;44.70
42147;DHT22;27815;43.410;11.852;2023-04-09T21:18:26;11.00;44.60
42147;DHT22;27815;43.410;11.852;2023-04-09T21:22:29;11.00;44.50
42147;DHT22;27815;43.410;11.852;2023-04-09T21:26:32;11.00;44.60
42147;DHT22;27815;43.410;11.852;2023-04-09T21:30:51;11.00;44.50
42147;DHT22;27815;43.410;11.852;2023-04-09T21:34:53;11.00;44.50
42147;DHT22;27815;43.410;11.852;2023-04-09T21:38:56;11.00;44.50
42147;DHT22;27815;43.410;11.852;2023-04-09T21:42:59;11.00;44.50
42147;DHT22;27815;43.410;11.852;2023-04-09T21:47:01;11.00;44.40
42147;DHT22;27815;43.410;11.852;2023-04-09T21:51:11;11.00;44.40
42147;DHT22;27815;43.410;11.852;2023-04-09T21:55:14;11.00;44.40
42147;DHT22;27815;43.410;11.852;2023-04-09T21:59:16;11.00;44.40
42147;DHT22;27815;43.410;11.852;2023-04-09T22:03:19;11.00;44.30
42147;DHT22;27815;43.410;11.852;2023-04-09T22:07:23;11.00;44.10
42147;DHT22;27815;43.410;11.852;2023-04-09T22:11:27;11.00;44.10
42147;DHT22;27815;43.410;11.852;2023-04-09T22:15:30;11.00;44.10
42147;DHT22;27815;43.410;11.852;2023-04-09T22:19:32;11.00;44.10
42147;DHT22;27815;43.410;11.852;2023-04-09T22:23:35;11.00;44.20
42147;DHT22;27815;43.410;11.852;2023-04-09T22:27:38;10.90;44.20
42147;DHT22;27815;43.410;11.852;2023-04-09T22:31:41;10.90;44.30
42147;DHT22;27815;43.410;11.852;2023-04-09T22:35:43;10.80;44.40
42147;DHT22;27815;43.410;11.852;2023-04-09T22:39:48;10.70;44.50
42147;DHT22;27815;43.410;11.852;2023-04-09T22:43:50;10.70;44.50
42147;DHT22;27815;43.410;11.852;2023-04-09T22:47:53;10.80;44.40
42147;DHT22;27815;43.410;11.852;2023-04-09T22:51:56;10.80;44.30
42147;DHT22;27815;43.410;11.852;2023-04-09T22:55:58;10.80;44.30
42147;DHT22;27815;43.410;11.852;2023-04-09T23:00:01;10.80;44.30
42147;DHT22;27815;43.410;11.852;2023-04-09T23:04:06;10.80;44.40
42147;DHT22;27815;43.410;11.852;2023-04-09T23:08:08;10.70;44.50
42147;DHT22;27815;43.410;11.852;2023-04-09T23:12:11;10.70;44.50
42147;DHT22;27815;43.410;11.852;2023-04-09T23:16:14;10.70;44.60
42147;DHT22;27815;43.410;11.852;2023-04-09T23:20:17;10.60;44.60
42147;DHT22;27815;43.410;11.852;2023-04-09T23:24:19;10.60;44.70
42147;DHT22;27815;43.410;11.852;2023-04-09T23:28:22;10.60;44.70
42147;DHT22;27815;43.410;11.852;2023-04-09T23:32:25;10.60;44.80
42147;DHT22;27815;43.410;11.852;2023-04-09T23:36:28;10.60;44.80
42147;DHT22;27815;43.410;11.852;2023-04-09T23:40:30;10.60;44.80
42147;DHT22;27815;43.410;11.852;2023-04-09T23:44:33;10.60;44.90
42147;DHT22;27815;43.410;11.852;2023-04-09T23:48:36;10.60;44.90
42147;DHT22;27815;43.410;11.852;2023-04-09T23:52:44;10.60;44.90
42147;DHT22;27815;43.410;11.852;2023-04-09T23:56:47;10.60;45.00
